createdAt,value
2023-03-11T00:04:02.864Z,64.53
2023-03-11T00:09:05.196Z,63.74
2023-03-11T00:14:07.193Z,63.72
2023-03-11T00:19:10.651Z,62.76
2023-03-11T00:24:12.436Z,63.16
2023-03-11T00:29:14.070Z,63.60
2023-03-11T00:34:16.252Z,61.67
2023-03-11T00:39:18.022Z,62.05
2023-03-11T00:44:19.740Z,63.17
2023-03-11T00:49:21.614Z,62.47
2023-03-11T00:54:23.771Z,61.91
2023-03-11T00:59:25.598Z,62.10
2023-03-11T01:04:27.344Z,62.51
2023-03-11T01:09:29.217Z,63.17
2023-03-11T01:14:30.917Z,62.87
2023-03-11T01:19:32.684Z,63.22
2023-03-11T01:24:34.346Z,63.46
2023-03-11T01:29:36.297Z,64.09
2023-03-11T01:34:38.831Z,64.65
2023-03-11T01:39:40.593Z,64.71
2023-03-11T01:44:42.539Z,65.32
2023-03-11T01:49:44.397Z,64.58
2023-03-11T01:54:46.310Z,64.59
2023-03-11T01:59:51.912Z,64.09
2023-03-11T02:04:54.751Z,65.25
2023-03-11T02:09:59.140Z,64.68
2023-03-11T02:15:02.040Z,64.84
2023-03-11T02:20:12.556Z,65.20
2023-03-11T02:25:24.587Z,65.79
2023-03-11T02:30:27.787Z,66.12
2023-03-11T02:35:31.478Z,66.58
2023-03-11T02:41:01.710Z,66.26
2023-03-11T02:46:06.842Z,66.29
2023-03-11T02:51:08.817Z,65.78
2023-03-11T02:56:11.864Z,64.96
2023-03-11T03:01:14.179Z,64.59
2023-03-11T03:06:19.333Z,64.21
2023-03-11T03:11:21.094Z,64.58
2023-03-11T03:16:23.575Z,64.29
2023-03-11T03:21:25.447Z,64.17
2023-03-11T03:26:28.197Z,64.73
2023-03-11T03:31:30.252Z,65.53
2023-03-11T03:36:33.124Z,66.08
2023-03-11T03:41:38.199Z,64.56
2023-03-11T03:46:41.672Z,63.76
2023-03-11T03:51:44.924Z,63.40
2023-03-11T03:56:54.934Z,63.23
2023-03-11T04:01:57.945Z,62.85
2023-03-11T04:07:00.957Z,62.32
2023-03-11T04:12:03.302Z,62.43
2023-03-11T04:17:10.887Z,61.10
2023-03-11T04:22:12.960Z,60.57
2023-03-11T04:27:14.882Z,59.56
2023-03-11T04:32:16.753Z,60.25
2023-03-11T04:37:19.953Z,61.57
2023-03-11T04:42:21.868Z,62.43
2023-03-11T04:47:24.462Z,63.25
2023-03-11T04:52:26.430Z,63.51
2023-03-11T04:57:28.809Z,64.20
2023-03-11T05:02:32.156Z,64.45
2023-03-11T05:07:36.948Z,64.70
2023-03-11T05:12:39.954Z,65.00
2023-03-11T05:17:42.747Z,64.99
2023-03-11T05:22:44.787Z,65.17
2023-03-11T05:27:46.632Z,65.21
2023-03-11T05:32:50.074Z,65.37
2023-03-11T05:37:54.749Z,65.49
2023-03-11T05:42:57.650Z,65.83
2023-03-11T05:48:00.946Z,65.96
2023-03-11T05:53:02.700Z,65.69
2023-03-11T05:58:06.131Z,65.63
2023-03-11T06:03:09.078Z,65.69
2023-03-11T06:08:10.721Z,65.48
2023-03-11T06:13:12.708Z,65.59
2023-03-11T06:18:26.798Z,65.30
2023-03-11T06:23:30.056Z,65.38
2023-03-11T06:28:33.926Z,65.58
2023-03-11T06:33:35.918Z,65.69
2023-03-11T06:38:37.696Z,65.79
2023-03-11T06:43:39.755Z,66.01
2023-03-11T06:48:42.578Z,66.21
2023-03-11T06:53:49.239Z,65.55
2023-03-11T06:58:51.834Z,65.40
2023-03-11T07:03:53.689Z,65.38
2023-03-11T07:08:57.392Z,65.52
2023-03-11T07:13:59.391Z,65.25
2023-03-11T07:19:04.814Z,65.14
2023-03-11T07:24:06.792Z,65.50
2023-03-11T07:29:10.168Z,64.59
2023-03-11T07:34:12.871Z,65.02
2023-03-11T07:39:17.766Z,64.74
2023-03-11T07:44:19.533Z,65.02
2023-03-11T07:49:21.253Z,65.12
2023-03-11T07:54:22.935Z,65.76
2023-03-11T07:59:25.630Z,65.25
2023-03-11T08:04:27.320Z,65.29
2023-03-11T08:09:29.397Z,65.38
2023-03-11T08:14:31.095Z,65.23
2023-03-11T08:19:32.833Z,65.13
2023-03-11T08:24:35.690Z,65.49
2023-03-11T08:29:37.628Z,65.52
2023-03-11T08:34:40.002Z,65.27
2023-03-11T08:39:41.856Z,64.77
2023-03-11T08:44:44.152Z,65.38
2023-03-11T08:49:45.848Z,63.93
2023-03-11T08:54:47.606Z,63.53
2023-03-11T08:59:49.341Z,63.02
2023-03-11T09:04:51.490Z,63.63
2023-03-11T09:09:54.667Z,64.19
2023-03-11T09:14:56.621Z,63.75
2023-03-11T09:19:58.436Z,63.40
2023-03-11T09:25:00.152Z,63.62
2023-03-11T09:30:04.923Z,63.91
2023-03-11T09:35:06.900Z,63.01
2023-03-11T09:40:11.760Z,62.79
2023-03-11T09:45:13.408Z,61.26
2023-03-11T09:50:24.955Z,61.71
2023-03-11T09:55:39.699Z,61.27
2023-03-11T10:00:42.024Z,61.69
2023-03-11T10:05:46.057Z,62.54
2023-03-11T10:10:54.213Z,61.01
2023-03-11T10:16:23.580Z,61.22
2023-03-11T10:21:59.451Z,61.14
2023-03-11T10:27:14.377Z,60.95
2023-03-11T10:32:34.099Z,62.16
2023-03-11T10:37:49.867Z,59.48
2023-03-11T10:42:54.173Z,59.89
2023-03-11T10:47:57.916Z,59.65
2023-03-11T10:53:10.026Z,58.62
2023-03-11T10:58:14.587Z,58.71
2023-03-11T11:03:21.720Z,58.33
2023-03-11T11:08:23.806Z,60.09
2023-03-11T11:13:30.090Z,59.79
2023-03-11T11:18:42.416Z,58.86
2023-03-11T11:23:48.731Z,58.94
2023-03-11T11:29:09.511Z,58.77
2023-03-11T11:34:26.821Z,59.74
2023-03-11T11:39:33.060Z,58.80
2023-03-11T11:44:35.020Z,58.52
2023-03-11T11:49:38.020Z,57.65
2023-03-11T11:54:48.940Z,56.37
2023-03-11T11:59:50.772Z,57.11
2023-03-11T12:04:56.181Z,56.87
2023-03-11T12:10:22.875Z,56.90
2023-03-11T12:15:33.723Z,56.19
2023-03-11T12:20:42.414Z,57.60
2023-03-11T12:25:59.094Z,58.83
2023-03-11T12:31:04.840Z,58.69
2023-03-11T12:36:10.233Z,58.34
2023-03-11T12:41:15.042Z,58.78
2023-03-11T12:46:17.912Z,58.79
2023-03-11T12:51:33.739Z,58.22
2023-03-11T12:56:50.364Z,57.94
2023-03-11T13:01:58.275Z,56.71
2023-03-11T13:07:18.999Z,57.33
2023-03-11T13:12:42.944Z,54.69
2023-03-11T13:18:02.185Z,55.21
2023-03-11T13:23:12.942Z,54.97
2023-03-11T13:28:29.803Z,54.23
2023-03-11T13:33:53.128Z,54.07
2023-03-11T13:39:10.557Z,54.49
2023-03-11T13:44:37.194Z,54.03
2023-03-11T13:50:00.127Z,53.10
2023-03-11T13:55:14.170Z,52.71
2023-03-11T14:00:18.511Z,52.28
2023-03-11T14:05:27.628Z,52.19
2023-03-11T14:10:30.991Z,53.16
2023-03-11T14:15:43.737Z,53.18
2023-03-11T14:20:48.230Z,54.01
2023-03-11T14:25:58.401Z,53.91
2023-03-11T14:31:02.093Z,52.22
2023-03-11T14:36:11.509Z,52.52
2023-03-11T14:41:17.302Z,52.80
2023-03-11T14:46:27.280Z,52.69
2023-03-11T14:51:34.077Z,52.04
2023-03-11T14:56:41.672Z,52.58
2023-03-11T15:01:47.678Z,52.53
2023-03-11T15:06:50.503Z,52.87
2023-03-11T15:11:58.383Z,52.51
2023-03-11T15:17:41.296Z,52.52
2023-03-11T15:22:45.788Z,51.74
2023-03-11T15:27:47.605Z,51.60
2023-03-11T15:32:50.082Z,51.43
2023-03-11T15:38:25.239Z,52.24
2023-03-11T15:43:30.751Z,52.24
2023-03-11T15:48:32.525Z,53.60
2023-03-11T15:53:34.244Z,53.57
2023-03-11T15:58:38.180Z,53.36
2023-03-11T16:03:40.118Z,54.22
2023-03-11T16:08:44.454Z,54.08
2023-03-11T16:13:55.153Z,54.43
2023-03-11T16:18:57.090Z,55.11
2023-03-11T16:23:59.187Z,54.63
2023-03-11T16:29:12.664Z,54.85
2023-03-11T16:34:21.114Z,54.88
2023-03-11T16:39:22.791Z,55.17
2023-03-11T16:44:24.675Z,55.14
2023-03-11T16:49:26.486Z,54.77
2023-03-11T16:54:28.190Z,54.59
2023-03-11T16:59:30.201Z,55.08
2023-03-11T17:04:31.989Z,54.99
2023-03-11T17:09:35.490Z,54.63
2023-03-11T17:14:39.008Z,54.64
2023-03-11T17:19:40.803Z,54.79
2023-03-11T17:24:42.889Z,55.06
2023-03-11T17:29:44.748Z,55.07
2023-03-11T17:34:46.497Z,55.03
2023-03-11T17:39:48.631Z,55.51
2023-03-11T17:44:55.887Z,56.18
2023-03-11T17:49:57.747Z,56.96
2023-03-11T17:54:59.638Z,57.72
2023-03-11T18:00:05.617Z,57.75
2023-03-11T18:05:11.165Z,58.32
2023-03-11T18:10:14.387Z,58.52
2023-03-11T18:15:19.164Z,58.61
2023-03-11T18:20:21.250Z,58.76
2023-03-11T18:25:22.934Z,58.88
2023-03-11T18:30:24.761Z,59.02
2023-03-11T18:35:26.509Z,59.08
2023-03-11T18:40:28.364Z,59.26
2023-03-11T18:45:30.247Z,59.64
2023-03-11T18:50:32.303Z,60.03
2023-03-11T18:55:35.293Z,60.27
2023-03-11T19:00:36.947Z,60.60
2023-03-11T19:05:39.660Z,60.91
2023-03-11T19:10:42.879Z,60.66
2023-03-11T19:15:45.041Z,61.00
2023-03-11T19:20:56.491Z,61.13
2023-03-11T19:26:03.679Z,61.12
2023-03-11T19:31:05.870Z,61.00
2023-03-11T19:36:08.874Z,61.20
2023-03-11T19:41:18.505Z,61.63
2023-03-11T19:46:22.253Z,61.88
2023-03-11T19:51:26.649Z,62.34
2023-03-11T19:56:31.405Z,62.33
2023-03-11T20:01:33.161Z,62.44
2023-03-11T20:06:35.230Z,62.02
2023-03-11T20:11:39.975Z,62.29
2023-03-11T20:16:41.926Z,62.42
2023-03-11T20:21:45.789Z,62.74
2023-03-11T20:26:50.060Z,63.07
2023-03-11T20:31:53.102Z,62.87
2023-03-11T20:36:55.414Z,63.06
2023-03-11T20:41:57.303Z,63.34
2023-03-11T20:46:59.366Z,63.51
2023-03-11T20:52:02.933Z,63.66
2023-03-11T20:57:04.955Z,63.62
2023-03-11T21:02:07.199Z,63.81
2023-03-11T21:07:09.011Z,64.23
2023-03-11T21:12:10.990Z,64.56
2023-03-11T21:17:12.975Z,64.78
2023-03-11T21:22:14.861Z,64.88
2023-03-11T21:27:16.786Z,65.21
2023-03-11T21:32:19.041Z,65.05
2023-03-11T21:37:20.808Z,65.17
2023-03-11T21:42:22.544Z,65.25
2023-03-11T21:47:24.387Z,65.16
2023-03-11T21:52:26.697Z,64.96
2023-03-11T21:57:28.511Z,65.32
2023-03-11T22:02:30.228Z,65.53
2023-03-11T22:07:32.125Z,65.50
2023-03-11T22:12:34.234Z,65.42
2023-03-11T22:17:36.371Z,65.15
2023-03-11T22:22:38.360Z,65.58
2023-03-11T22:27:40.350Z,65.79
2023-03-11T22:32:42.148Z,65.92
2023-03-11T22:37:43.953Z,65.74
2023-03-11T22:42:45.676Z,65.84
2023-03-11T22:47:47.891Z,66.05
2023-03-11T22:52:49.742Z,66.29
2023-03-11T22:57:51.483Z,66.53
2023-03-11T23:02:55.629Z,66.39
2023-03-11T23:07:57.404Z,66.44
2023-03-11T23:12:59.161Z,66.35
2023-03-11T23:18:00.857Z,66.47
2023-03-11T23:23:03.527Z,66.73
2023-03-11T23:28:05.774Z,66.88
2023-03-11T23:33:07.482Z,66.99
2023-03-11T23:38:09.319Z,66.86
2023-03-11T23:43:11.206Z,66.88
2023-03-11T23:48:12.963Z,66.94
2023-03-11T23:53:15.881Z,67.36
2023-03-11T23:58:18.814Z,67.14
